Etusivu
METAR-TAF:

METAR-TAF

Lentoasemat :

Molde, Norja

Molden lentoasema

Leveyspiiri: 62-45N, Pituuspiiri: 007-16E, korkeus merenpinnasta: 0 m

Tämänhetkinen sää

Tämä raportti tehtiin 47 minuuttia sitten, kello 00.50 UTC
Tuuli 7 kn idästä/koillisesta, vaihdellen koillisen ja idän välillä
Lämpötila 1°C
Kosteus 69%
Ilmanpaine 1016 hPa
Näkyvyys 10 km tai enemmän

METAR: ENML 180050Z AUTO 07007KT 040V100 9999NDV BKN076/// OVC130/// 01/M04 Q1016

Aika: 02:37 (01:37 UTC)

Sääennuste

Tämä raportti tehtiin 11 tuntia ja 37 minuuttia sitten, kello 14.00 UTC
Ennuste voimassa 17. päivästä klo 15 UTC - 17. päivään klo 20 UTC
Tuuli 8 kn idästä/koillisesta
Näkyvyys 10 km tai enemmän
ei pilviä alle 1500 m:ssä eikä cumulonimbus-pilviä

TAF: ENML 171400Z 1715/1720 07008KT CAVOK

Säähavainnot ja -ennusteet yli 4000 lentoasemalta (METAR- ja TAF-raportit).

Käytössä olevat sääasemat on merkitty karttaan keltaisilla ja punaisilla pisteillä.

Aseta hiiri pisteen päälle nähdäksesi sääaseman nimen.

Klikkaa sitten nähdäksesi säähavainnot ja -ennusteet.

Kartan vaihtaminen: klikkaa mustalla rastilla varustettuja vihreitä pisteitä, niin voit zoomata sisään; viivalla varustettua vihreää pistettä, niin voit zoomata ulos tai vihreitä nuolia, niin pääset viereisille kartoille.


METAR-TAF: